Time;durP1;ratioP1;P1;durP2;ratioP2;P2;SDS_P1;SDS_P2;PMS_P1;PMS_P2;Temp;Humidity;BMP_temperature;BMP_pressure;BME280_temperature;BME280_humidity;BME280_pressure;Samples;Min_cycle;Max_cycle;Signal;HPM_P1;HPM_P2
2022/02/21 00:01:42;;;;;;;0.90;0.60;;;21.80;53.90;;;;;;5033695;28;20403;-83
2022/02/21 00:04:12;;;;;;;0.90;0.60;;;21.80;53.30;;;;;;5033471;28;20482;-83
2022/02/21 00:06:43;;;;;;;0.80;0.70;;;21.80;53.30;;;;;;5034044;28;20437;-84
2022/02/21 00:09:14;;;;;;;0.90;0.60;;;21.80;53.30;;;;;;5034508;28;20838;-83
2022/02/21 00:11:49;;;;;;;1.00;0.80;;;21.80;53.30;;;;;;5015690;28;20427;-82
2022/02/21 00:14:19;;;;;;;0.90;0.60;;;21.80;53.30;;;;;;5018049;28;20522;-83
2022/02/21 00:16:45;;;;;;;0.87;0.53;;;21.80;53.30;;;;;;5000165;28;20427;-83
2022/02/21 00:19:34;;;;;;;0.97;0.67;;;21.80;53.30;;;;;;5033457;28;20426;-83
2022/02/21 00:22:20;;;;;;;1.00;0.60;;;21.90;53.40;;;;;;5032543;28;20233;-83
2022/02/21 00:24:58;;;;;;;0.80;0.70;;;21.90;53.30;;;;;;5017465;28;20944;-83
2022/02/21 00:27:38;;;;;;;0.90;0.70;;;21.90;53.30;;;;;;5033080;28;20411;-83
2022/02/21 00:30:11;;;;;;;0.93;0.60;;;21.80;53.30;;;;;;5033551;28;20387;-83
2022/02/21 00:32:57;;;;;;;2.10;0.80;;;21.90;53.30;;;;;;5069054;28;20439;-83
2022/02/21 00:35:25;;;;;;;1.17;0.73;;;21.80;53.30;;;;;;5077723;28;20452;-83
2022/02/21 00:37:57;;;;;;;1.40;0.70;;;21.80;53.20;;;;;;5091306;28;20416;-83
2022/02/21 00:40:25;;;;;;;0.80;0.50;;;21.80;53.20;;;;;;5091322;28;20495;-83
2022/02/21 00:42:52;;;;;;;0.80;0.60;;;21.80;53.20;;;;;;5076918;28;20417;-83
2022/02/21 00:48:48;;;;;;;0.93;0.60;;;21.90;53.30;;;;;;5096216;28;20364;-83
2022/02/21 00:51:20;;;;;;;1.30;0.80;;;21.80;53.30;;;;;;5095290;28;20421;-83
2022/02/21 00:53:55;;;;;;;0.80;0.60;;;21.80;53.30;;;;;;5094588;28;20454;-83
2022/02/21 00:56:30;;;;;;;1.77;0.60;;;21.80;53.30;;;;;;5096175;28;20416;-83
2022/02/21 00:59:01;;;;;;;0.80;0.60;;;21.80;53.30;;;;;;5096738;28;20451;-83
2022/02/21 01:01:30;;;;;;;0.80;0.60;;;21.80;53.30;;;;;;5091603;28;20419;-83
2022/02/21 01:03:59;;;;;;;0.80;0.60;;;21.80;53.30;;;;;;5071428;28;20505;-83
2022/02/21 01:06:26;;;;;;;0.80;0.60;;;21.80;53.30;;;;;;5076315;28;20456;-83
2022/02/21 01:08:52;;;;;;;1.17;0.70;;;21.80;53.20;;;;;;5095714;28;20439;-83
2022/02/21 01:11:20;;;;;;;1.10;0.70;;;21.80;53.30;;;;;;5096639;28;20423;-83
2022/02/21 01:13:46;;;;;;;0.90;0.70;;;21.80;53.20;;;;;;5095824;28;20456;-83
2022/02/21 01:16:12;;;;;;;1.23;0.70;;;21.80;53.20;;;;;;5096053;28;20511;-83
2022/02/21 01:18:42;;;;;;;2.00;1.00;;;21.80;53.20;;;;;;5095930;28;20419;-83
2022/02/21 01:21:10;;;;;;;1.07;0.80;;;21.80;53.20;;;;;;5089854;28;20401;-83
2022/02/21 01:23:45;;;;;;;1.10;0.70;;;21.80;53.20;;;;;;5090514;28;20902;-83
2022/02/21 01:26:13;;;;;;;0.90;0.60;;;21.80;53.20;;;;;;5088666;28;20415;-83
2022/02/21 01:28:43;;;;;;;1.40;0.70;;;21.80;53.20;;;;;;5092699;28;20464;-83
2022/02/21 01:31:09;;;;;;;1.20;0.70;;;21.80;53.20;;;;;;5070198;28;20512;-83
2022/02/21 01:33:35;;;;;;;0.90;0.70;;;21.80;53.20;;;;;;5079478;28;20421;-83
2022/02/21 01:36:14;;;;;;;1.20;0.80;;;21.80;53.20;;;;;;5095974;28;20419;-83
2022/02/21 01:38:42;;;;;;;1.10;0.70;;;21.80;53.20;;;;;;5092460;28;20410;-83
2022/02/21 01:41:16;;;;;;;1.53;0.63;;;21.80;53.20;;;;;;5081073;28;20423;-82
2022/02/21 01:43:47;;;;;;;1.80;0.80;;;21.80;53.20;;;;;;5096474;28;20439;-82
2022/02/21 01:46:13;;;;;;;0.80;0.60;;;21.80;53.20;;;;;;5097160;28;20480;-82
2022/02/21 01:48:41;;;;;;;0.80;0.50;;;21.80;53.20;;;;;;5089565;28;20445;-83
2022/02/21 01:51:17;;;;;;;0.80;0.60;;;21.80;53.20;;;;;;5089117;28;20404;-83
2022/02/21 01:53:46;;;;;;;2.40;0.70;;;21.80;53.20;;;;;;5092322;28;20484;-82
2022/02/21 01:56:13;;;;;;;0.90;0.60;;;21.80;53.20;;;;;;5097255;28;20428;-83
2022/02/21 01:58:46;;;;;;;0.80;0.50;;;21.80;53.20;;;;;;5095622;28;20440;-82
2022/02/21 02:01:12;;;;;;;0.80;0.60;;;21.80;53.20;;;;;;5096235;28;20409;-83
2022/02/21 02:03:49;;;;;;;1.20;0.70;;;21.80;53.20;;;;;;5095063;28;20420;-83
2022/02/21 02:06:19;;;;;;;0.93;0.60;;;21.80;53.20;;;;;;5090235;28;20439;-83
2022/02/21 02:08:48;;;;;;;0.90;0.67;;;21.80;53.20;;;;;;5095557;28;20433;-83
2022/02/21 02:11:19;;;;;;;0.90;0.60;;;21.80;53.30;;;;;;5075610;28;20433;-83
2022/02/21 02:13:51;;;;;;;0.80;0.60;;;21.80;53.30;;;;;;5095306;28;20467;-83
2022/02/21 02:16:19;;;;;;;0.90;0.60;;;21.80;53.20;;;;;;5089605;28;20405;-84
2022/02/21 02:18:47;;;;;;;1.10;0.80;;;21.80;53.30;;;;;;5091658;28;20492;-83
2022/02/21 02:21:37;;;;;;;0.80;0.60;;;21.80;53.30;;;;;;5089070;28;20419;-83
2022/02/21 02:24:10;;;;;;;0.80;0.60;;;21.80;53.20;;;;;;5092902;28;20425;-83
2022/02/21 02:26:52;;;;;;;1.00;0.70;;;21.80;53.20;;;;;;5092605;28;20405;-83
2022/02/21 02:29:49;;;;;;;1.70;0.70;;;21.80;53.30;;;;;;5095733;28;20458;-83
2022/02/21 02:32:26;;;;;;;1.20;0.70;;;21.80;53.30;;;;;;5088544;28;20421;-83
2022/02/21 02:34:57;;;;;;;1.00;0.70;;;21.70;53.20;;;;;;5095192;28;20464;-83
2022/02/21 02:37:25;;;;;;;1.53;0.80;;;21.70;53.20;;;;;;5082090;28;20409;-83
2022/02/21 02:39:57;;;;;;;0.80;0.60;;;21.80;53.30;;;;;;5107551;28;20458;-84
2022/02/21 02:42:25;;;;;;;1.00;0.60;;;21.70;53.20;;;;;;5094981;28;20419;-83
2022/02/21 02:44:53;;;;;;;0.83;0.60;;;21.70;53.20;;;;;;5095857;28;20424;-83
2022/02/21 02:47:27;;;;;;;0.90;0.70;;;21.70;53.20;;;;;;5096536;28;20463;-83
2022/02/21 02:49:59;;;;;;;0.80;0.60;;;21.70;53.20;;;;;;5090060;28;20484;-83
2022/02/21 02:52:27;;;;;;;0.87;0.70;;;21.70;53.20;;;;;;5097032;28;20401;-83
2022/02/21 02:54:54;;;;;;;0.90;0.63;;;21.80;53.30;;;;;;5070022;28;20452;-83
2022/02/21 02:57:21;;;;;;;0.80;0.60;;;21.70;53.20;;;;;;5092917;28;20413;-83
2022/02/21 02:59:48;;;;;;;1.33;0.70;;;21.80;53.30;;;;;;5094822;28;20421;-83
2022/02/21 03:02:41;;;;;;;1.00;0.80;;;21.80;53.20;;;;;;5091721;28;20459;-83
2022/02/21 03:05:11;;;;;;;0.87;0.63;;;21.80;53.20;;;;;;5094550;28;20435;-83
2022/02/21 03:07:49;;;;;;;1.20;0.60;;;21.70;53.10;;;;;;5086478;28;20435;-83
2022/02/21 03:10:23;;;;;;;0.80;0.60;;;21.70;53.20;;;;;;5072509;28;20412;-83
2022/02/21 03:12:49;;;;;;;1.00;0.60;;;21.70;53.20;;;;;;5095751;28;20409;-83
2022/02/21 03:15:19;;;;;;;1.47;0.70;;;21.70;53.20;;;;;;5086050;28;20468;-83
2022/02/21 03:17:49;;;;;;;1.10;0.80;;;21.70;53.20;;;;;;5087407;28;20447;-83
2022/02/21 03:20:16;;;;;;;0.80;0.53;;;21.70;53.20;;;;;;5091435;28;20392;-83
2022/02/21 03:22:44;;;;;;;1.10;0.70;;;21.70;53.20;;;;;;5074692;28;20453;-83
2022/02/21 03:25:13;;;;;;;0.80;0.60;;;21.70;53.20;;;;;;5086355;28;20422;-83
2022/02/21 03:27:54;;;;;;;1.10;0.70;;;21.70;53.10;;;;;;5090988;28;20409;-82
2022/02/21 03:30:22;;;;;;;0.90;0.60;;;21.70;53.10;;;;;;5089356;28;20420;-83
2022/02/21 03:33:08;;;;;;;0.90;0.63;;;21.70;53.10;;;;;;5059196;28;20424;-83
2022/02/21 03:35:37;;;;;;;1.00;0.70;;;21.70;53.20;;;;;;5091768;28;20443;-83
2022/02/21 03:38:05;;;;;;;0.80;0.60;;;21.70;53.20;;;;;;5094375;28;20482;-83
2022/02/21 03:40:34;;;;;;;0.90;0.70;;;21.70;53.20;;;;;;5092430;28;20431;-83
2022/02/21 03:43:02;;;;;;;1.00;0.70;;;21.70;53.20;;;;;;5092985;28;20436;-83
2022/02/21 03:45:29;;;;;;;0.80;0.63;;;21.70;53.20;;;;;;5086094;28;20484;-83
2022/02/21 03:47:59;;;;;;;1.20;1.10;;;21.70;53.20;;;;;;5092644;28;20420;-83
2022/02/21 03:50:27;;;;;;;0.93;0.63;;;21.70;53.20;;;;;;5088279;28;20440;-83
2022/02/21 03:52:53;;;;;;;0.90;0.60;;;21.70;53.20;;;;;;5076351;28;20429;-83
2022/02/21 03:55:23;;;;;;;1.20;0.80;;;21.70;53.20;;;;;;5093042;28;20468;-83
2022/02/21 03:57:52;;;;;;;0.80;0.60;;;21.70;53.20;;;;;;5091374;28;20876;-83
2022/02/21 04:00:21;;;;;;;0.90;0.60;;;21.70;53.20;;;;;;5076013;28;20423;-83
2022/02/21 04:02:47;;;;;;;2.00;0.77;;;21.70;53.10;;;;;;5093397;28;20987;-83
2022/02/21 04:05:21;;;;;;;1.77;0.70;;;21.70;53.10;;;;;;5092571;28;20428;-83
2022/02/21 04:07:49;;;;;;;1.00;0.70;;;21.70;53.10;;;;;;5093773;28;20412;-84
2022/02/21 04:10:18;;;;;;;1.00;0.60;;;21.70;53.20;;;;;;5104231;28;20420;-83
2022/02/21 04:12:49;;;;;;;0.97;0.70;;;21.70;53.20;;;;;;5093285;28;20404;-83
2022/02/21 04:15:18;;;;;;;0.90;0.70;;;21.70;53.10;;;;;;5091968;28;20460;-83
2022/02/21 04:17:48;;;;;;;0.80;0.60;;;21.70;53.10;;;;;;5095147;28;20413;-83
2022/02/21 04:20:23;;;;;;;0.80;0.60;;;21.70;53.10;;;;;;5092012;28;20401;-83
2022/02/21 04:22:53;;;;;;;0.80;0.60;;;21.70;53.10;;;;;;5090434;28;20422;-83
2022/02/21 04:25:23;;;;;;;1.10;0.70;;;21.70;53.20;;;;;;5091262;28;20417;-83
2022/02/21 04:27:56;;;;;;;0.90;0.60;;;21.70;53.10;;;;;;5089019;28;20416;-83
2022/02/21 04:30:31;;;;;;;1.33;0.70;;;21.70;53.20;;;;;;5092855;28;20428;-83
2022/02/21 04:32:57;;;;;;;0.90;0.60;;;21.70;53.20;;;;;;5106648;28;20420;-83
2022/02/21 04:35:28;;;;;;;1.23;0.60;;;21.70;53.20;;;;;;5061129;28;20453;-83
2022/02/21 04:37:57;;;;;;;1.00;0.80;;;21.70;53.10;;;;;;5095933;28;20427;-83
2022/02/21 04:40:29;;;;;;;1.33;0.70;;;21.70;53.20;;;;;;5096076;28;20916;-83
2022/02/21 04:42:57;;;;;;;0.80;0.60;;;21.70;53.20;;;;;;5096914;28;20415;-83
2022/02/21 04:45:24;;;;;;;0.80;0.57;;;21.70;53.20;;;;;;5096547;28;20428;-83
2022/02/21 04:47:58;;;;;;;1.23;0.80;;;21.70;53.20;;;;;;5096926;28;20417;-83
2022/02/21 04:50:28;;;;;;;0.90;0.60;;;21.70;53.20;;;;;;5096437;28;20396;-83
2022/02/21 04:53:06;;;;;;;1.10;0.63;;;21.70;53.20;;;;;;5095335;28;20459;-83
2022/02/21 04:55:32;;;;;;;0.73;0.60;;;21.70;53.10;;;;;;5092929;28;20468;-83
2022/02/21 04:58:01;;;;;;;0.80;0.60;;;21.70;53.20;;;;;;5076650;28;20413;-83
2022/02/21 05:00:31;;;;;;;0.93;0.67;;;21.70;53.20;;;;;;5095249;28;20415;-83
2022/02/21 05:02:58;;;;;;;1.10;0.60;;;21.70;53.20;;;;;;5096656;28;20445;-83
2022/02/21 05:05:27;;;;;;;1.67;0.70;;;21.70;53.20;;;;;;5097051;28;20423;-83
2022/02/21 05:08:14;;;;;;;0.90;0.70;;;21.70;53.10;;;;;;5096570;28;20432;-83
2022/02/21 05:10:44;;;;;;;1.10;0.70;;;21.70;53.10;;;;;;5095029;28;20480;-83
2022/02/21 05:13:15;;;;;;;0.80;0.60;;;21.60;53.10;;;;;;5096467;28;20428;-84
2022/02/21 05:15:43;;;;;;;0.73;0.50;;;21.60;53.10;;;;;;5095668;28;20448;-84
2022/02/21 05:18:13;;;;;;;1.30;0.70;;;21.70;53.20;;;;;;5096770;28;20421;-83
2022/02/21 05:20:49;;;;;;;1.03;0.60;;;21.70;53.20;;;;;;5091094;28;20424;-83
2022/02/21 05:23:21;;;;;;;0.90;0.60;;;21.70;53.20;;;;;;5095914;28;20456;-85
2022/02/21 05:25:50;;;;;;;1.53;0.60;;;21.70;53.20;;;;;;5096326;28;20427;-84
2022/02/21 05:28:15;;;;;;;0.83;0.63;;;21.60;53.10;;;;;;5094971;28;20433;-84
2022/02/21 05:30:42;;;;;;;0.80;0.60;;;21.70;53.20;;;;;;5094581;28;20416;-85
2022/02/21 05:33:13;;;;;;;0.80;0.60;;;21.60;53.10;;;;;;5077087;28;20212;-85
2022/02/21 05:35:41;;;;;;;1.17;0.60;;;21.60;53.10;;;;;;5093273;28;20535;-83
2022/02/21 05:38:09;;;;;;;1.10;0.60;;;21.60;53.00;;;;;;5093649;28;20425;-83
2022/02/21 05:40:40;;;;;;;1.00;0.80;;;21.60;52.90;;;;;;5094874;28;20451;-83
2022/02/21 05:43:08;;;;;;;0.80;0.60;;;21.70;53.00;;;;;;5095399;28;20407;-83
2022/02/21 05:45:34;;;;;;;0.87;0.60;;;21.60;53.00;;;;;;5078109;28;20404;-84
2022/02/21 05:48:07;;;;;;;0.90;0.70;;;21.60;53.00;;;;;;5096684;28;20413;-84
2022/02/21 05:50:40;;;;;;;1.00;0.73;;;21.60;53.00;;;;;;5093416;28;20422;-83
2022/02/21 05:53:16;;;;;;;0.80;0.60;;;21.60;53.00;;;;;;5079487;28;20432;-83
2022/02/21 05:55:43;;;;;;;1.13;0.60;;;21.60;53.00;;;;;;5098467;28;20469;-83
2022/02/21 05:58:11;;;;;;;1.23;0.80;;;21.60;53.10;;;;;;5094843;28;20420;-83
2022/02/21 06:00:37;;;;;;;1.00;0.60;;;21.60;53.10;;;;;;5076700;28;20434;-83
2022/02/21 06:03:14;;;;;;;1.70;0.70;;;21.60;53.10;;;;;;5093645;28;20417;-83
2022/02/21 06:05:43;;;;;;;2.80;0.63;;;21.60;53.10;;;;;;5094248;28;20412;-83
2022/02/21 06:08:10;;;;;;;0.90;0.60;;;21.60;53.10;;;;;;5091189;28;20433;-88
2022/02/21 06:10:43;;;;;;;0.80;0.60;;;21.60;53.10;;;;;;5093033;28;20428;-82
2022/02/21 06:13:11;;;;;;;0.90;0.67;;;21.60;53.10;;;;;;5088054;28;20440;-83
2022/02/21 06:15:37;;;;;;;1.00;0.70;;;21.60;53.20;;;;;;5095149;28;20452;-82
2022/02/21 06:18:07;;;;;;;3.27;0.70;;;21.60;53.10;;;;;;5095302;28;20420;-83
2022/02/21 06:20:35;;;;;;;0.80;0.60;;;21.60;53.10;;;;;;5095592;28;20424;-83
2022/02/21 06:23:15;;;;;;;0.90;0.60;;;21.60;53.20;;;;;;5095164;28;20456;-83
2022/02/21 06:25:55;;;;;;;0.80;0.60;;;21.60;53.20;;;;;;5095442;28;20440;-83
2022/02/21 06:28:24;;;;;;;1.00;0.60;;;21.60;53.20;;;;;;5079127;28;20927;-82
2022/02/21 06:30:55;;;;;;;1.00;0.60;;;21.60;53.20;;;;;;5095342;28;20421;-83
2022/02/21 06:33:22;;;;;;;1.00;0.70;;;21.60;53.20;;;;;;5076550;28;20704;-83
2022/02/21 06:35:52;;;;;;;1.50;0.70;;;21.60;53.20;;;;;;5095923;28;20459;-83
2022/02/21 06:38:22;;;;;;;2.03;0.80;;;21.60;53.20;;;;;;5095840;28;20489;-82
2022/02/21 06:40:51;;;;;;;1.40;0.80;;;21.60;53.20;;;;;;5095326;28;20424;-82
2022/02/21 06:43:19;;;;;;;1.00;0.60;;;21.60;53.20;;;;;;5091756;28;20424;-90
2022/02/21 06:45:45;;;;;;;0.80;0.60;;;21.60;53.20;;;;;;5090034;28;20472;-84
2022/02/21 06:48:12;;;;;;;0.80;0.60;;;21.60;53.20;;;;;;5075093;28;20463;-84
2022/02/21 06:50:40;;;;;;;0.90;0.70;;;21.70;53.20;;;;;;5093957;28;20467;-87
2022/02/21 06:53:06;;;;;;;0.97;0.70;;;21.70;53.20;;;;;;5092279;28;20424;-90
2022/02/21 06:55:45;;;;;;;0.80;0.60;;;21.60;53.20;;;;;;5091001;28;20198;-83
2022/02/21 06:58:22;;;;;;;1.03;0.60;;;21.70;53.20;;;;;;5093466;28;20193;-83
2022/02/21 07:00:48;;;;;;;1.10;0.60;;;21.70;53.20;;;;;;5092899;28;20442;-84
2022/02/21 07:03:15;;;;;;;1.10;0.70;;;21.70;53.20;;;;;;5094815;28;20420;-84
2022/02/21 07:05:42;;;;;;;0.90;0.70;;;21.70;53.20;;;;;;5076031;28;20401;-83
2022/02/21 07:08:10;;;;;;;1.23;0.60;;;21.70;53.20;;;;;;5091819;28;20482;-84
2022/02/21 07:10:37;;;;;;;0.80;0.67;;;21.70;53.20;;;;;;5092828;28;20425;-83
2022/02/21 07:13:10;;;;;;;1.37;0.70;;;21.70;53.20;;;;;;5092479;28;20803;-84
2022/02/21 07:15:42;;;;;;;1.10;0.70;;;21.70;53.20;;;;;;5093743;28;20452;-83
2022/02/21 07:18:11;;;;;;;2.10;0.90;;;21.70;53.20;;;;;;5092844;28;20409;-83
2022/02/21 07:20:37;;;;;;;0.80;0.70;;;21.70;53.10;;;;;;5093262;28;20420;-83
2022/02/21 07:23:05;;;;;;;0.90;0.60;;;21.70;53.10;;;;;;5092831;28;20488;-83
2022/02/21 07:25:37;;;;;;;1.00;0.60;;;21.70;53.10;;;;;;5092884;28;20424;-83
2022/02/21 07:28:04;;;;;;;1.00;0.60;;;21.70;53.10;;;;;;5075865;28;20436;-84
2022/02/21 07:30:44;;;;;;;0.90;0.60;;;21.70;53.10;;;;;;5093434;28;20425;-83
2022/02/21 07:33:13;;;;;;;1.00;0.60;;;21.70;53.10;;;;;;5084613;28;20416;-83
2022/02/21 07:36:08;;;;;;;0.93;0.60;;;21.70;53.10;;;;;;5075611;28;20467;-84
2022/02/21 07:38:36;;;;;;;1.03;0.60;;;21.70;53.10;;;;;;5091352;28;20412;-83
2022/02/21 07:41:03;;;;;;;1.90;0.80;;;21.70;53.10;;;;;;5083459;28;20469;-83
2022/02/21 07:43:35;;;;;;;0.90;0.60;;;21.70;53.10;;;;;;5094042;28;20412;-83
2022/02/21 07:46:13;;;;;;;0.93;0.70;;;21.70;53.20;;;;;;5077655;28;20488;-83
2022/02/21 07:48:40;;;;;;;1.00;0.60;;;21.80;53.30;;;;;;5094537;28;20484;-83
2022/02/21 07:51:08;;;;;;;1.00;0.60;;;21.70;53.20;;;;;;5093788;28;20420;-83
2022/02/21 07:53:45;;;;;;;1.60;0.80;;;21.80;53.30;;;;;;5093296;28;20432;-83
2022/02/21 07:56:12;;;;;;;0.80;0.60;;;21.70;53.20;;;;;;5092790;28;20412;-86
2022/02/21 08:02:17;;;;;;;0.90;0.60;;;21.80;53.30;;;;;;5090745;28;20399;-82
2022/02/21 08:04:49;;;;;;;2.27;0.90;;;21.70;53.20;;;;;;5088534;28;20472;-82
2022/02/21 08:07:28;;;;;;;1.63;0.70;;;21.70;53.20;;;;;;5090629;28;20435;-84
2022/02/21 08:16:16;;;;;;;1.43;0.93;;;21.80;53.50;;;;;;5090881;28;20905;-82
2022/02/21 08:18:43;;;;;;;1.00;0.67;;;21.80;53.40;;;;;;5089502;28;20506;-81
2022/02/21 08:21:16;;;;;;;6.00;0.90;;;21.80;53.40;;;;;;5092636;28;20413;-82
2022/02/21 08:23:43;;;;;;;2.37;0.80;;;21.80;53.50;;;;;;5091830;28;20452;-82
2022/02/21 08:26:11;;;;;;;1.10;0.70;;;21.80;53.50;;;;;;5092440;28;20426;-82
2022/02/21 08:28:38;;;;;;;2.30;0.90;;;21.80;53.50;;;;;;5093165;28;20420;-82
2022/02/21 08:31:07;;;;;;;4.30;0.90;;;21.90;53.70;;;;;;5090865;28;20420;-83
2022/02/21 08:33:34;;;;;;;2.33;1.00;;;21.90;53.80;;;;;;5090632;28;20420;-82
2022/02/21 08:36:00;;;;;;;2.70;0.90;;;21.90;53.60;;;;;;5089973;28;20432;-82
2022/02/21 08:38:26;;;;;;;2.70;0.60;;;21.90;53.60;;;;;;5092268;28;20424;-83
2022/02/21 08:40:54;;;;;;;2.03;1.50;;;21.90;53.60;;;;;;5070938;28;20464;-83
2022/02/21 08:43:29;;;;;;;4.77;0.90;;;22.00;53.70;;;;;;5089000;28;20432;-81
2022/02/21 08:45:58;;;;;;;1.80;0.60;;;22.00;53.70;;;;;;5092323;28;20419;-82
2022/02/21 08:48:27;;;;;;;2.00;0.80;;;22.00;53.70;;;;;;5074942;28;20428;-82
2022/02/21 08:50:53;;;;;;;4.33;1.00;;;22.00;53.70;;;;;;5090981;28;20444;-83
2022/02/21 08:53:19;;;;;;;1.73;0.70;;;22.00;53.60;;;;;;5091463;28;20427;-83
2022/02/21 08:55:48;;;;;;;4.40;1.07;;;22.10;53.70;;;;;;5090696;28;20231;-83
2022/02/21 08:58:17;;;;;;;1.17;0.73;;;22.10;53.70;;;;;;5090027;28;20495;-83
2022/02/21 09:00:47;;;;;;;1.20;0.80;;;22.10;53.70;;;;;;5090595;28;20416;-83
2022/02/21 09:03:13;;;;;;;2.10;0.70;;;22.10;53.70;;;;;;5090543;28;20480;-83
2022/02/21 09:05:39;;;;;;;4.07;1.20;;;22.10;53.70;;;;;;5089979;28;20416;-83
2022/02/21 09:08:36;;;;;;;1.50;0.70;;;22.10;53.70;;;;;;5090916;28;20436;-83
2022/02/21 09:11:02;;;;;;;1.43;0.80;;;22.10;53.70;;;;;;5090255;28;20428;-83
2022/02/21 09:13:29;;;;;;;1.90;0.77;;;22.10;53.70;;;;;;5090852;28;20429;-83
2022/02/21 09:15:58;;;;;;;1.80;0.77;;;22.10;53.70;;;;;;5087208;28;20463;-83
2022/02/21 09:18:31;;;;;;;2.80;0.90;;;22.20;53.80;;;;;;5088739;28;20431;-83
2022/02/21 09:20:59;;;;;;;2.23;1.10;;;22.20;53.80;;;;;;5092100;28;20453;-83
2022/02/21 09:23:25;;;;;;;1.97;0.70;;;22.20;53.80;;;;;;5093495;28;20419;-83
2022/02/21 09:25:56;;;;;;;2.53;1.10;;;22.20;53.80;;;;;;5092942;28;20419;-83
2022/02/21 09:28:22;;;;;;;2.90;1.17;;;22.20;53.80;;;;;;5091968;28;20439;-83
2022/02/21 09:30:53;;;;;;;1.80;0.80;;;22.20;53.80;;;;;;5093792;28;20515;-83
2022/02/21 09:33:20;;;;;;;2.27;0.90;;;22.20;53.80;;;;;;5093574;28;20412;-83
2022/02/21 09:35:46;;;;;;;1.30;1.03;;;22.20;53.90;;;;;;5092361;28;20452;-82
2022/02/21 09:38:15;;;;;;;3.27;1.00;;;22.20;53.90;;;;;;5093063;28;20417;-83
2022/02/21 09:40:56;;;;;;;;;;;;;;;;;;;;;
2022/02/21 09:43:31;;;;;;;2.87;1.00;;;22.30;53.90;;;;;;5092884;28;20428;-83
2022/02/21 09:46:04;;;;;;;1.40;0.77;;;22.30;53.90;;;;;;5086053;28;20475;-83
2022/02/21 09:48:33;;;;;;;1.47;1.00;;;22.30;54.00;;;;;;5103059;28;20448;-83
2022/02/21 09:51:00;;;;;;;3.70;1.00;;;22.30;53.90;;;;;;5085269;28;20430;-83
2022/02/21 09:53:30;;;;;;;1.70;0.83;;;22.30;53.90;;;;;;5094771;28;20491;-83
2022/02/21 09:55:58;;;;;;;1.40;0.60;;;22.30;53.90;;;;;;5093073;28;20575;-83
2022/02/21 09:58:26;;;;;;;4.17;0.97;;;22.30;53.90;;;;;;5093783;28;20431;-83
2022/02/21 10:00:53;;;;;;;8.93;1.00;;;22.30;54.00;;;;;;5092607;28;20504;-85
2022/02/21 10:03:40;;;;;;;1.37;0.70;;;22.30;53.90;;;;;;5093721;28;20503;-83
2022/02/21 10:06:25;;;;;;;1.20;0.70;;;22.40;54.00;;;;;;5094501;28;20499;-84
2022/02/21 10:09:08;;;;;;;3.47;0.80;;;22.30;53.90;;;;;;5091914;28;20413;-83
2022/02/21 10:11:41;;;;;;;0.90;0.70;;;22.30;54.50;;;;;;5091622;28;20423;-84
2022/02/21 10:14:21;;;;;;;2.70;0.80;;;22.30;53.90;;;;;;5087175;28;20459;-82
2022/02/21 10:16:53;;;;;;;3.50;1.03;;;22.40;54.00;;;;;;5090351;28;20451;-82
2022/02/21 10:19:30;;;;;;;1.00;0.70;;;22.40;54.10;;;;;;5084405;28;20421;-83
2022/02/21 10:22:11;;;;;;;1.70;0.80;;;22.30;54.00;;;;;;5083847;28;20420;-83
2022/02/21 10:24:52;;;;;;;0.90;0.70;;;22.40;54.10;;;;;;5086741;28;20446;-83
2022/02/21 10:27:29;;;;;;;2.40;0.97;;;22.40;54.10;;;;;;5085608;28;20448;-83
2022/02/21 10:30:00;;;;;;;1.87;0.70;;;22.40;54.10;;;;;;5091264;28;20419;-83
2022/02/21 10:32:30;;;;;;;3.97;2.00;;;22.40;54.10;;;;;;5091972;28;20409;-82
2022/02/21 10:35:09;;;;;;;1.23;0.90;;;22.40;54.10;;;;;;5091233;28;20459;-82
2022/02/21 10:37:43;;;;;;;2.53;0.93;;;22.40;54.00;;;;;;5090566;28;20412;-83
2022/02/21 10:40:20;;;;;;;2.30;1.00;;;22.40;54.00;;;;;;5089335;28;20428;-82
2022/02/21 10:43:22;;;;;;;1.90;1.10;;;22.40;54.00;;;;;;5089260;28;20430;-82
2022/02/21 10:45:48;;;;;;;4.00;0.90;;;22.40;54.00;;;;;;5083043;28;20874;-82
2022/02/21 10:48:21;;;;;;;1.60;0.80;;;22.40;54.00;;;;;;5079175;28;20416;-82
2022/02/21 10:51:04;;;;;;;2.03;0.90;;;22.40;54.00;;;;;;5084840;28;20414;-81
2022/02/21 10:53:39;;;;;;;3.60;1.00;;;22.40;54.00;;;;;;5087522;28;20420;-82
2022/02/21 10:56:05;;;;;;;1.43;0.77;;;22.40;54.10;;;;;;5105343;28;20427;-80
2022/02/21 10:58:31;;;;;;;2.43;0.80;;;22.40;54.10;;;;;;5092006;28;20430;-80
2022/02/21 11:00:58;;;;;;;1.80;1.10;;;22.40;54.00;;;;;;5088399;28;20464;-80
2022/02/21 11:03:27;;;;;;;1.77;0.90;;;22.40;54.00;;;;;;5086852;28;20444;-84
2022/02/21 11:05:56;;;;;;;1.90;0.70;;;22.40;54.00;;;;;;5084294;28;20428;-80
2022/02/21 11:08:26;;;;;;;1.60;1.03;;;22.40;54.00;;;;;;5088171;28;20438;-80
2022/02/21 11:11:04;;;;;;;0.90;0.60;;;22.40;54.00;;;;;;5079717;28;20430;-80
2022/02/21 11:13:33;;;;;;;3.90;1.00;;;22.40;54.00;;;;;;5088161;28;20507;-81
2022/02/21 11:16:00;;;;;;;1.53;1.00;;;22.40;54.00;;;;;;5084173;28;20464;-81
2022/02/21 11:18:27;;;;;;;1.53;1.00;;;22.40;54.00;;;;;;5092421;28;20446;-82
2022/02/21 11:20:54;;;;;;;5.93;1.30;;;22.40;54.10;;;;;;5093091;28;20412;-86
2022/02/21 11:23:22;;;;;;;2.87;1.67;;;22.40;54.10;;;;;;5091614;28;20450;-81
2022/02/21 11:26:28;;;;;;;4.57;1.30;;;22.50;54.20;;;;;;5093986;28;20422;-81
2022/02/21 11:29:12;;;;;;;2.73;1.10;;;22.50;54.10;;;;;;5039491;28;20433;-81
2022/02/21 11:31:42;;;;;;;2.43;1.20;;;22.50;54.10;;;;;;5011956;28;20951;-82
2022/02/21 11:34:12;;;;;;;4.23;0.90;;;22.40;54.00;;;;;;5035332;28;20446;-83
2022/02/21 11:36:47;;;;;;;5.17;1.07;;;22.40;54.00;;;;;;5017565;28;20933;-82
2022/02/21 11:39:33;;;;;;;1.20;0.83;;;22.40;54.00;;;;;;5021875;28;20413;-82
2022/02/21 11:42:16;;;;;;;3.00;0.90;;;22.40;54.00;;;;;;5036088;28;20411;-82
2022/02/21 11:44:54;;;;;;;1.10;0.77;;;22.40;53.90;;;;;;5025282;28;20427;-82
2022/02/21 11:47:58;;;;;;;1.10;0.80;;;22.40;53.90;;;;;;5000172;28;20431;-81
2022/02/21 11:50:31;;;;;;;2.60;1.23;;;22.40;53.90;;;;;;5009728;28;20431;-81
2022/02/21 11:53:20;;;;;;;3.37;1.50;;;22.40;54.00;;;;;;5035965;28;20892;-81
2022/02/21 11:55:47;;;;;;;7.90;3.30;;;22.40;54.00;;;;;;5025191;28;20469;-81
2022/02/21 11:58:38;;;;;;;10.20;4.10;;;22.40;54.00;;;;;;5037233;28;20407;-81
2022/02/21 12:01:24;;;;;;;6.80;4.30;;;22.40;54.00;;;;;;4915181;29;20413;-81
2022/02/21 12:04:13;;;;;;;13.27;4.57;;;22.40;54.00;;;;;;4945121;29;20449;-82
2022/02/21 12:06:58;;;;;;;15.57;6.23;;;22.40;54.00;;;;;;4997729;28;20455;-82
2022/02/21 12:09:27;;;;;;;13.93;6.10;;;22.40;54.00;;;;;;4987247;28;20444;-82
2022/02/21 12:13:42;;;;;;;15.17;7.37;;;22.40;54.00;;;;;;4987286;28;20424;-87
2022/02/21 12:16:03;;;;;;;13.53;7.27;;;22.40;54.00;;;;;;4939344;29;20471;-82
2022/02/21 12:18:45;;;;;;;20.40;8.97;;;22.40;54.00;;;;;;4944496;29;20470;-82
2022/02/21 12:21:34;;;;;;;;;;;;;;;;;;;;;
2022/02/21 12:24:35;;;;;;;19.20;10.70;;;22.40;54.10;;;;;;4947954;29;20458;-83
2022/02/21 12:27:34;;;;;;;21.60;10.30;;;22.30;54.00;;;;;;4956199;29;20454;-83
2022/02/21 12:30:02;;;;;;;25.50;11.73;;;22.40;54.00;;;;;;4926096;29;20438;-82
2022/02/21 12:32:39;;;;;;;20.20;10.90;;;22.30;54.00;;;;;;4949482;29;20433;-82
2022/02/21 12:35:08;;;;;;;17.10;10.27;;;22.30;54.00;;;;;;4955648;29;20473;-82
2022/02/21 12:37:42;;;;;;;15.93;10.40;;;22.30;54.00;;;;;;4972104;28;20480;-82
2022/02/21 12:40:25;;;;;;;;;;;;;;;;;;;;;
2022/02/21 12:43:48;;;;;;;;;;;;;;;;;;;;;
2022/02/21 12:46:32;;;;;;;21.30;11.77;;;22.40;54.00;;;;;;4948748;29;20462;-82
2022/02/21 12:49:00;;;;;;;27.60;12.37;;;22.30;54.00;;;;;;4946697;29;20423;-81
2022/02/21 12:51:31;;;;;;;20.87;13.53;;;22.30;54.00;;;;;;4986265;28;20419;-82
2022/02/21 12:54:26;;;;;;;20.20;11.40;;;22.30;54.00;;;;;;5027304;28;20427;-82
2022/02/21 12:57:33;;;;;;;24.53;14.13;;;22.30;54.00;;;;;;5027024;28;20435;-82
2022/02/21 13:02:52;;;;;;;21.67;13.47;;;22.30;54.00;;;;;;5020616;28;20446;-82
2022/02/21 13:08:39;;;;;;;20.30;11.70;;;22.30;54.00;;;;;;4954114;28;20429;-81
2022/02/21 13:11:23;;;;;;;21.73;12.73;;;22.30;54.00;;;;;;4924030;29;20411;-81
2022/02/21 13:13:52;;;;;;;29.20;13.93;;;22.30;54.10;;;;;;4948845;29;20972;-80
2022/02/21 13:16:18;;;;;;;21.80;12.67;;;22.30;54.10;;;;;;4920693;29;20411;-80
2022/02/21 13:19:07;;;;;;;22.77;13.27;;;22.30;54.10;;;;;;4955623;29;20450;-80
2022/02/21 13:21:42;;;;;;;17.53;11.80;;;22.30;54.10;;;;;;4993309;28;20426;-81
2022/02/21 13:24:17;;;;;;;20.70;12.03;;;22.30;54.10;;;;;;4964816;28;20421;-81
2022/02/21 13:27:08;;;;;;;19.23;12.63;;;22.30;54.10;;;;;;4994778;28;20451;-80
2022/02/21 13:29:51;;;;;;;24.63;12.87;;;22.30;54.10;;;;;;4977272;28;20465;-82
2022/02/21 13:36:09;;;;;;;19.23;12.40;;;22.30;54.10;;;;;;4995006;28;20496;-83
2022/02/21 13:38:55;;;;;;;21.80;12.57;;;22.30;54.10;;;;;;4979950;28;20498;-82
2022/02/21 13:41:45;;;;;;;24.90;13.17;;;22.30;54.10;;;;;;4995747;28;20437;-82
2022/02/21 13:44:25;;;;;;;23.27;12.27;;;22.30;54.10;;;;;;5002990;28;20434;-82